sensor_id;sensor_type;location;lat;lon;timestamp;temperature;humidity
43665;DHT22;29263;48.172;11.484;2023-04-07T08:04:39;7.50;96.30
43665;DHT22;29263;48.172;11.484;2023-04-07T08:07:04;7.50;95.40
43665;DHT22;29263;48.172;11.484;2023-04-07T08:09:30;7.50;92.80
43665;DHT22;29263;48.172;11.484;2023-04-07T08:11:57;7.50;94.30
43665;DHT22;29263;48.172;11.484;2023-04-07T08:14:22;7.60;92.60
43665;DHT22;29263;48.172;11.484;2023-04-07T08:16:48;7.70;91.70
43665;DHT22;29263;48.172;11.484;2023-04-07T08:19:14;7.90;89.60
43665;DHT22;29263;48.172;11.484;2023-04-07T08:21:39;8.00;89.70
43665;DHT22;29263;48.172;11.484;2023-04-07T08:24:06;8.10;87.80
43665;DHT22;29263;48.172;11.484;2023-04-07T08:26:34;8.20;89.50
43665;DHT22;29263;48.172;11.484;2023-04-07T08:28:59;8.40;89.60
43665;DHT22;29263;48.172;11.484;2023-04-07T08:31:25;8.50;84.50
43665;DHT22;29263;48.172;11.484;2023-04-07T08:33:51;8.60;81.10
43665;DHT22;29263;48.172;11.484;2023-04-07T08:36:23;8.70;82.30
43665;DHT22;29263;48.172;11.484;2023-04-07T08:38:48;8.80;80.10
43665;DHT22;29263;48.172;11.484;2023-04-07T08:41:20;8.90;77.50
43665;DHT22;29263;48.172;11.484;2023-04-07T08:43:47;8.90;75.60
43665;DHT22;29263;48.172;11.484;2023-04-07T08:46:14;8.90;75.70
43665;DHT22;29263;48.172;11.484;2023-04-07T08:48:43;9.00;76.30
43665;DHT22;29263;48.172;11.484;2023-04-07T08:51:13;9.10;77.40
43665;DHT22;29263;48.172;11.484;2023-04-07T08:53:49;9.40;74.50
43665;DHT22;29263;48.172;11.484;2023-04-07T08:56:16;9.50;71.90
43665;DHT22;29263;48.172;11.484;2023-04-07T08:58:43;9.50;71.10
43665;DHT22;29263;48.172;11.484;2023-04-07T09:01:09;9.60;72.40
43665;DHT22;29263;48.172;11.484;2023-04-07T09:03:37;9.70;71.50
43665;DHT22;29263;48.172;11.484;2023-04-07T09:06:03;9.70;72.10
43665;DHT22;29263;48.172;11.484;2023-04-07T09:08:28;9.60;71.00
43665;DHT22;29263;48.172;11.484;2023-04-07T09:10:56;9.70;70.30
43665;DHT22;29263;48.172;11.484;2023-04-07T09:13:23;9.80;68.90
43665;DHT22;29263;48.172;11.484;2023-04-07T09:15:49;9.90;67.60
43665;DHT22;29263;48.172;11.484;2023-04-07T09:18:15;10.00;68.40
43665;DHT22;29263;48.172;11.484;2023-04-07T09:20:58;10.10;68.00
43665;DHT22;29263;48.172;11.484;2023-04-07T09:26:00;10.30;67.30
43665;DHT22;29263;48.172;11.484;2023-04-07T09:28:41;10.40;65.40
43665;DHT22;29263;48.172;11.484;2023-04-07T09:31:07;10.30;65.00
43665;DHT22;29263;48.172;11.484;2023-04-07T09:33:33;10.40;66.40
43665;DHT22;29263;48.172;11.484;2023-04-07T09:36:18;10.60;65.00
43665;DHT22;29263;48.172;11.484;2023-04-07T09:38:44;10.40;63.10
43665;DHT22;29263;48.172;11.484;2023-04-07T09:41:14;10.30;62.60
43665;DHT22;29263;48.172;11.484;2023-04-07T09:43:43;10.40;65.00
43665;DHT22;29263;48.172;11.484;2023-04-07T09:46:16;10.60;64.90
43665;DHT22;29263;48.172;11.484;2023-04-07T09:48:44;10.70;65.20
43665;DHT22;29263;48.172;11.484;2023-04-07T09:51:11;11.00;65.50
43665;DHT22;29263;48.172;11.484;2023-04-07T09:53:49;11.40;64.90
43665;DHT22;29263;48.172;11.484;2023-04-07T09:56:19;11.70;61.40
43665;DHT22;29263;48.172;11.484;2023-04-07T09:58:47;11.80;59.30
43665;DHT22;29263;48.172;11.484;2023-04-07T10:01:16;11.70;58.50
43665;DHT22;29263;48.172;11.484;2023-04-07T10:03:42;11.70;58.90
43665;DHT22;29263;48.172;11.484;2023-04-07T10:06:08;11.70;59.20
43665;DHT22;29263;48.172;11.484;2023-04-07T10:08:36;11.80;61.00
43665;DHT22;29263;48.172;11.484;2023-04-07T10:11:03;11.90;60.10
43665;DHT22;29263;48.172;11.484;2023-04-07T10:13:30;12.00;58.70
43665;DHT22;29263;48.172;11.484;2023-04-07T10:15:57;12.00;57.90
43665;DHT22;29263;48.172;11.484;2023-04-07T10:18:28;11.80;56.70
43665;DHT22;29263;48.172;11.484;2023-04-07T10:20:56;11.60;58.10
43665;DHT22;29263;48.172;11.484;2023-04-07T10:23:55;11.50;58.20
43665;DHT22;29263;48.172;11.484;2023-04-07T10:26:27;11.50;59.10
43665;DHT22;29263;48.172;11.484;2023-04-07T10:29:05;11.30;57.80
43665;DHT22;29263;48.172;11.484;2023-04-07T10:31:31;11.40;58.60
43665;DHT22;29263;48.172;11.484;2023-04-07T10:33:58;11.40;58.50
43665;DHT22;29263;48.172;11.484;2023-04-07T10:36:23;11.30;58.20
43665;DHT22;29263;48.172;11.484;2023-04-07T10:41:39;11.50;59.00
43665;DHT22;29263;48.172;11.484;2023-04-07T10:44:06;11.50;57.80
43665;DHT22;29263;48.172;11.484;2023-04-07T10:49:10;11.80;59.20
43665;DHT22;29263;48.172;11.484;2023-04-07T10:51:38;12.10;57.60
43665;DHT22;29263;48.172;11.484;2023-04-07T10:54:19;12.50;55.80
43665;DHT22;29263;48.172;11.484;2023-04-07T10:59:31;12.50;55.40
43665;DHT22;29263;48.172;11.484;2023-04-07T11:04:45;12.20;55.40
43665;DHT22;29263;48.172;11.484;2023-04-07T11:07:13;12.30;56.60
43665;DHT22;29263;48.172;11.484;2023-04-07T11:09:39;12.40;55.00
43665;DHT22;29263;48.172;11.484;2023-04-07T11:12:06;12.30;55.10
43665;DHT22;29263;48.172;11.484;2023-04-07T11:14:32;12.40;55.50
43665;DHT22;29263;48.172;11.484;2023-04-07T11:16:59;12.60;55.90
43665;DHT22;29263;48.172;11.484;2023-04-07T11:19:28;12.90;55.90
43665;DHT22;29263;48.172;11.484;2023-04-07T11:22:14;13.10;55.60
43665;DHT22;29263;48.172;11.484;2023-04-07T11:24:40;12.90;53.90
43665;DHT22;29263;48.172;11.484;2023-04-07T11:27:11;12.90;54.00
43665;DHT22;29263;48.172;11.484;2023-04-07T11:29:37;13.10;55.70
43665;DHT22;29263;48.172;11.484;2023-04-07T11:32:03;13.50;52.70
43665;DHT22;29263;48.172;11.484;2023-04-07T11:34:33;13.70;52.20
43665;DHT22;29263;48.172;11.484;2023-04-07T11:37:22;13.80;53.60
43665;DHT22;29263;48.172;11.484;2023-04-07T11:39:54;13.80;51.80
43665;DHT22;29263;48.172;11.484;2023-04-07T11:42:34;13.90;51.50
43665;DHT22;29263;48.172;11.484;2023-04-07T11:45:00;13.80;53.20
43665;DHT22;29263;48.172;11.484;2023-04-07T11:47:44;13.80;52.50
43665;DHT22;29263;48.172;11.484;2023-04-07T11:50:10;13.60;52.20
43665;DHT22;29263;48.172;11.484;2023-04-07T11:52:42;13.40;52.80
43665;DHT22;29263;48.172;11.484;2023-04-07T11:55:19;13.10;53.20
43665;DHT22;29263;48.172;11.484;2023-04-07T11:57:46;13.10;52.90
43665;DHT22;29263;48.172;11.484;2023-04-07T12:00:12;13.30;52.90
43665;DHT22;29263;48.172;11.484;2023-04-07T12:02:39;13.50;51.70
43665;DHT22;29263;48.172;11.484;2023-04-07T12:05:05;13.40;52.00
43665;DHT22;29263;48.172;11.484;2023-04-07T12:07:31;13.40;51.40
43665;DHT22;29263;48.172;11.484;2023-04-07T12:09:57;13.40;52.10
43665;DHT22;29263;48.172;11.484;2023-04-07T12:12:27;13.60;52.90
43665;DHT22;29263;48.172;11.484;2023-04-07T12:14:54;13.70;52.00
43665;DHT22;29263;48.172;11.484;2023-04-07T12:17:23;13.80;51.80
43665;DHT22;29263;48.172;11.484;2023-04-07T12:19:49;13.60;51.60
43665;DHT22;29263;48.172;11.484;2023-04-07T12:22:15;13.50;52.30
43665;DHT22;29263;48.172;11.484;2023-04-07T12:24:41;13.30;52.00
43665;DHT22;29263;48.172;11.484;2023-04-07T12:27:06;13.10;52.90
43665;DHT22;29263;48.172;11.484;2023-04-07T12:29:33;13.00;53.10
43665;DHT22;29263;48.172;11.484;2023-04-07T12:31:59;12.80;52.80
43665;DHT22;29263;48.172;11.484;2023-04-07T12:34:25;12.90;54.30
43665;DHT22;29263;48.172;11.484;2023-04-07T12:36:52;13.10;53.60
43665;DHT22;29263;48.172;11.484;2023-04-07T12:39:17;13.20;54.40
43665;DHT22;29263;48.172;11.484;2023-04-07T12:41:43;13.20;53.20
43665;DHT22;29263;48.172;11.484;2023-04-07T12:44:10;13.00;54.00
43665;DHT22;29263;48.172;11.484;2023-04-07T12:46:36;12.90;54.80
43665;DHT22;29263;48.172;11.484;2023-04-07T12:49:01;12.70;55.10
43665;DHT22;29263;48.172;11.484;2023-04-07T12:51:27;12.60;55.00
43665;DHT22;29263;48.172;11.484;2023-04-07T12:53:53;12.50;54.90
43665;DHT22;29263;48.172;11.484;2023-04-07T12:56:19;12.50;55.60
43665;DHT22;29263;48.172;11.484;2023-04-07T12:58:47;12.40;56.40
43665;DHT22;29263;48.172;11.484;2023-04-07T13:01:12;12.50;55.50
43665;DHT22;29263;48.172;11.484;2023-04-07T13:03:39;12.50;56.40
43665;DHT22;29263;48.172;11.484;2023-04-07T13:06:04;12.60;56.30
43665;DHT22;29263;48.172;11.484;2023-04-07T13:08:30;12.70;55.40
43665;DHT22;29263;48.172;11.484;2023-04-07T13:10:56;12.70;55.40
43665;DHT22;29263;48.172;11.484;2023-04-07T13:13:22;12.80;56.10
43665;DHT22;29263;48.172;11.484;2023-04-07T13:15:48;12.90;56.20
43665;DHT22;29263;48.172;11.484;2023-04-07T13:18:13;12.90;56.00
43665;DHT22;29263;48.172;11.484;2023-04-07T13:20:39;12.80;56.60
43665;DHT22;29263;48.172;11.484;2023-04-07T13:23:05;12.80;55.70
43665;DHT22;29263;48.172;11.484;2023-04-07T13:25:31;12.70;55.20
43665;DHT22;29263;48.172;11.484;2023-04-07T13:27:56;12.60;56.20
43665;DHT22;29263;48.172;11.484;2023-04-07T13:30:24;12.70;56.50
43665;DHT22;29263;48.172;11.484;2023-04-07T13:32:49;12.80;55.00
43665;DHT22;29263;48.172;11.484;2023-04-07T13:35:16;12.90;55.00
43665;DHT22;29263;48.172;11.484;2023-04-07T13:37:42;13.10;54.80
43665;DHT22;29263;48.172;11.484;2023-04-07T13:40:09;13.20;54.80
43665;DHT22;29263;48.172;11.484;2023-04-07T13:42:35;13.20;54.80
43665;DHT22;29263;48.172;11.484;2023-04-07T13:45:01;13.20;54.70
43665;DHT22;29263;48.172;11.484;2023-04-07T13:47:26;13.20;53.60
43665;DHT22;29263;48.172;11.484;2023-04-07T13:49:54;13.10;53.70
43665;DHT22;29263;48.172;11.484;2023-04-07T13:52:20;13.10;54.10
43665;DHT22;29263;48.172;11.484;2023-04-07T13:54:46;13.00;54.60
43665;DHT22;29263;48.172;11.484;2023-04-07T13:57:12;13.10;54.30
43665;DHT22;29263;48.172;11.484;2023-04-07T13:59:45;13.10;53.80
43665;DHT22;29263;48.172;11.484;2023-04-07T14:02:11;13.10;53.80
43665;DHT22;29263;48.172;11.484;2023-04-07T14:04:36;13.00;54.20
43665;DHT22;29263;48.172;11.484;2023-04-07T14:07:02;12.90;54.80
43665;DHT22;29263;48.172;11.484;2023-04-07T14:09:28;12.90;55.70
43665;DHT22;29263;48.172;11.484;2023-04-07T14:11:54;12.80;55.50
43665;DHT22;29263;48.172;11.484;2023-04-07T14:14:19;12.90;56.40
43665;DHT22;29263;48.172;11.484;2023-04-07T14:16:45;12.90;56.20
43665;DHT22;29263;48.172;11.484;2023-04-07T14:19:11;12.90;55.20
43665;DHT22;29263;48.172;11.484;2023-04-07T14:21:37;12.80;54.80
43665;DHT22;29263;48.172;11.484;2023-04-07T14:24:02;12.70;54.80
43665;DHT22;29263;48.172;11.484;2023-04-07T14:26:28;12.60;54.90
43665;DHT22;29263;48.172;11.484;2023-04-07T14:28:53;12.60;55.40
43665;DHT22;29263;48.172;11.484;2023-04-07T14:31:19;12.60;56.90
43665;DHT22;29263;48.172;11.484;2023-04-07T14:33:45;12.70;56.80
43665;DHT22;29263;48.172;11.484;2023-04-07T14:36:13;12.70;56.60
43665;DHT22;29263;48.172;11.484;2023-04-07T14:38:42;12.70;56.50
43665;DHT22;29263;48.172;11.484;2023-04-07T14:41:08;12.70;56.60
43665;DHT22;29263;48.172;11.484;2023-04-07T14:43:35;12.60;56.10
43665;DHT22;29263;48.172;11.484;2023-04-07T14:46:00;12.50;56.00
43665;DHT22;29263;48.172;11.484;2023-04-07T14:48:26;12.50;56.00
43665;DHT22;29263;48.172;11.484;2023-04-07T14:50:52;12.50;55.30
43665;DHT22;29263;48.172;11.484;2023-04-07T14:53:18;12.40;55.00
43665;DHT22;29263;48.172;11.484;2023-04-07T14:55:43;12.40;56.60
43665;DHT22;29263;48.172;11.484;2023-04-07T14:58:09;12.30;57.80
43665;DHT22;29263;48.172;11.484;2023-04-07T15:00:35;12.30;57.30
43665;DHT22;29263;48.172;11.484;2023-04-07T15:03:00;12.30;57.60
43665;DHT22;29263;48.172;11.484;2023-04-07T15:05:27;12.30;57.40
43665;DHT22;29263;48.172;11.484;2023-04-07T15:07:53;12.30;57.70
43665;DHT22;29263;48.172;11.484;2023-04-07T15:10:19;12.30;58.00
43665;DHT22;29263;48.172;11.484;2023-04-07T15:12:45;12.20;58.20
43665;DHT22;29263;48.172;11.484;2023-04-07T15:15:12;12.20;58.80
43665;DHT22;29263;48.172;11.484;2023-04-07T15:17:37;12.10;58.90
43665;DHT22;29263;48.172;11.484;2023-04-07T15:20:03;12.10;59.60
43665;DHT22;29263;48.172;11.484;2023-04-07T15:22:29;12.10;59.10
43665;DHT22;29263;48.172;11.484;2023-04-07T15:24:55;12.10;58.80
43665;DHT22;29263;48.172;11.484;2023-04-07T15:27:21;12.00;59.30
43665;DHT22;29263;48.172;11.484;2023-04-07T15:29:46;12.00;59.70
43665;DHT22;29263;48.172;11.484;2023-04-07T15:32:12;12.00;59.10
43665;DHT22;29263;48.172;11.484;2023-04-07T15:34:37;12.00;59.40
43665;DHT22;29263;48.172;11.484;2023-04-07T15:37:03;12.00;59.50
43665;DHT22;29263;48.172;11.484;2023-04-07T15:39:29;11.90;60.70
43665;DHT22;29263;48.172;11.484;2023-04-07T15:41:55;12.00;60.40
43665;DHT22;29263;48.172;11.484;2023-04-07T15:44:21;12.10;59.40
43665;DHT22;29263;48.172;11.484;2023-04-07T15:46:47;12.00;59.00
43665;DHT22;29263;48.172;11.484;2023-04-07T15:49:12;11.90;59.80
43665;DHT22;29263;48.172;11.484;2023-04-07T15:51:44;11.80;60.00
43665;DHT22;29263;48.172;11.484;2023-04-07T15:54:10;11.90;60.60
43665;DHT22;29263;48.172;11.484;2023-04-07T15:56:39;11.90;60.10
43665;DHT22;29263;48.172;11.484;2023-04-07T15:59:04;11.90;59.80
43665;DHT22;29263;48.172;11.484;2023-04-07T16:01:30;11.80;60.20
43665;DHT22;29263;48.172;11.484;2023-04-07T16:03:56;11.80;60.20
43665;DHT22;29263;48.172;11.484;2023-04-07T16:06:22;11.80;60.50
43665;DHT22;29263;48.172;11.484;2023-04-07T16:08:48;11.80;59.90
43665;DHT22;29263;48.172;11.484;2023-04-07T16:11:13;11.70;60.60
43665;DHT22;29263;48.172;11.484;2023-04-07T16:13:39;11.80;60.80
43665;DHT22;29263;48.172;11.484;2023-04-07T16:16:05;11.90;61.00
43665;DHT22;29263;48.172;11.484;2023-04-07T16:18:32;11.90;61.00
43665;DHT22;29263;48.172;11.484;2023-04-07T16:20:57;11.90;60.70
43665;DHT22;29263;48.172;11.484;2023-04-07T16:23:23;11.80;60.60
43665;DHT22;29263;48.172;11.484;2023-04-07T16:25:49;11.80;60.90
43665;DHT22;29263;48.172;11.484;2023-04-07T16:28:14;11.70;61.00
43665;DHT22;29263;48.172;11.484;2023-04-07T16:30:41;11.70;61.40
43665;DHT22;29263;48.172;11.484;2023-04-07T16:33:06;11.60;62.00
43665;DHT22;29263;48.172;11.484;2023-04-07T16:35:32;11.60;62.30
43665;DHT22;29263;48.172;11.484;2023-04-07T16:37:58;11.50;62.20
43665;DHT22;29263;48.172;11.484;2023-04-07T16:40:26;11.50;62.30
43665;DHT22;29263;48.172;11.484;2023-04-07T16:42:51;11.50;63.30
43665;DHT22;29263;48.172;11.484;2023-04-07T16:45:17;11.40;63.10
43665;DHT22;29263;48.172;11.484;2023-04-07T16:47:43;11.40;63.30
43665;DHT22;29263;48.172;11.484;2023-04-07T16:50:09;11.30;63.00
43665;DHT22;29263;48.172;11.484;2023-04-07T16:52:35;11.30;63.40
43665;DHT22;29263;48.172;11.484;2023-04-07T16:55:01;11.20;63.70
43665;DHT22;29263;48.172;11.484;2023-04-07T16:57:27;11.10;64.10
43665;DHT22;29263;48.172;11.484;2023-04-07T16:59:53;11.10;64.60
43665;DHT22;29263;48.172;11.484;2023-04-07T17:02:18;11.00;64.70
43665;DHT22;29263;48.172;11.484;2023-04-07T17:04:44;11.00;65.60
43665;DHT22;29263;48.172;11.484;2023-04-07T17:07:10;10.90;65.80
43665;DHT22;29263;48.172;11.484;2023-04-07T17:09:36;10.90;66.70
43665;DHT22;29263;48.172;11.484;2023-04-07T17:12:02;10.90;66.70
43665;DHT22;29263;48.172;11.484;2023-04-07T17:14:28;10.90;66.90
43665;DHT22;29263;48.172;11.484;2023-04-07T17:16:55;10.80;67.10
43665;DHT22;29263;48.172;11.484;2023-04-07T17:19:20;10.80;67.50
43665;DHT22;29263;48.172;11.484;2023-04-07T17:21:46;10.70;67.00
43665;DHT22;29263;48.172;11.484;2023-04-07T17:24:12;10.70;67.70
43665;DHT22;29263;48.172;11.484;2023-04-07T17:26:42;10.60;67.60
43665;DHT22;29263;48.172;11.484;2023-04-07T17:29:08;10.60;68.00
43665;DHT22;29263;48.172;11.484;2023-04-07T17:31:34;10.60;68.70
43665;DHT22;29263;48.172;11.484;2023-04-07T17:34:01;10.60;69.10
43665;DHT22;29263;48.172;11.484;2023-04-07T17:36:28;10.50;69.30
43665;DHT22;29263;48.172;11.484;2023-04-07T17:38:54;10.50;70.10
43665;DHT22;29263;48.172;11.484;2023-04-07T17:41:19;10.40;70.60
43665;DHT22;29263;48.172;11.484;2023-04-07T17:43:45;10.40;70.60
43665;DHT22;29263;48.172;11.484;2023-04-07T17:46:11;10.40;71.40
43665;DHT22;29263;48.172;11.484;2023-04-07T17:48:36;10.40;72.50
43665;DHT22;29263;48.172;11.484;2023-04-07T17:51:02;10.30;72.20
43665;DHT22;29263;48.172;11.484;2023-04-07T17:53:28;10.30;72.50
43665;DHT22;29263;48.172;11.484;2023-04-07T17:55:55;10.20;72.90
43665;DHT22;29263;48.172;11.484;2023-04-07T17:58:21;10.20;73.70
43665;DHT22;29263;48.172;11.484;2023-04-07T18:00:47;10.10;74.70
43665;DHT22;29263;48.172;11.484;2023-04-07T18:03:15;10.10;74.60
43665;DHT22;29263;48.172;11.484;2023-04-07T18:05:45;10.00;74.80
43665;DHT22;29263;48.172;11.484;2023-04-07T18:08:11;10.00;75.20
43665;DHT22;29263;48.172;11.484;2023-04-07T18:10:37;9.90;75.80
43665;DHT22;29263;48.172;11.484;2023-04-07T18:13:03;9.90;76.40
43665;DHT22;29263;48.172;11.484;2023-04-07T18:15:30;9.90;77.30
43665;DHT22;29263;48.172;11.484;2023-04-07T18:17:56;9.90;78.10
43665;DHT22;29263;48.172;11.484;2023-04-07T18:20:21;9.80;78.70
43665;DHT22;29263;48.172;11.484;2023-04-07T18:22:49;9.70;78.20
43665;DHT22;29263;48.172;11.484;2023-04-07T18:25:15;9.70;79.20
43665;DHT22;29263;48.172;11.484;2023-04-07T18:27:41;9.70;79.90
43665;DHT22;29263;48.172;11.484;2023-04-07T18:30:07;9.70;80.20
43665;DHT22;29263;48.172;11.484;2023-04-07T18:32:33;9.70;82.10
43665;DHT22;29263;48.172;11.484;2023-04-07T18:34:59;9.70;82.60
43665;DHT22;29263;48.172;11.484;2023-04-07T18:37:24;9.60;83.40
43665;DHT22;29263;48.172;11.484;2023-04-07T18:39:50;9.60;83.20
43665;DHT22;29263;48.172;11.484;2023-04-07T18:42:18;9.50;83.50
43665;DHT22;29263;48.172;11.484;2023-04-07T18:44:44;9.50;83.70
43665;DHT22;29263;48.172;11.484;2023-04-07T18:47:10;9.50;83.60
43665;DHT22;29263;48.172;11.484;2023-04-07T18:49:36;9.50;84.40
43665;DHT22;29263;48.172;11.484;2023-04-07T18:52:01;9.40;86.40
43665;DHT22;29263;48.172;11.484;2023-04-07T18:54:28;9.40;89.60
43665;DHT22;29263;48.172;11.484;2023-04-07T18:56:54;9.40;90.60
43665;DHT22;29263;48.172;11.484;2023-04-07T18:59:20;9.40;91.40
43665;DHT22;29263;48.172;11.484;2023-04-07T19:01:46;9.30;92.00
43665;DHT22;29263;48.172;11.484;2023-04-07T19:04:12;9.40;92.50
43665;DHT22;29263;48.172;11.484;2023-04-07T19:06:39;9.30;93.50
43665;DHT22;29263;48.172;11.484;2023-04-07T19:09:05;9.30;94.20
43665;DHT22;29263;48.172;11.484;2023-04-07T19:11:30;9.20;94.10
43665;DHT22;29263;48.172;11.484;2023-04-07T19:13:57;9.20;94.70
43665;DHT22;29263;48.172;11.484;2023-04-07T19:16:23;9.20;94.90
43665;DHT22;29263;48.172;11.484;2023-04-07T19:18:52;9.10;94.00
43665;DHT22;29263;48.172;11.484;2023-04-07T19:21:18;9.10;94.60
43665;DHT22;29263;48.172;11.484;2023-04-07T19:23:44;9.10;94.90
43665;DHT22;29263;48.172;11.484;2023-04-07T19:26:13;9.10;95.80
43665;DHT22;29263;48.172;11.484;2023-04-07T19:28:39;9.10;95.00
43665;DHT22;29263;48.172;11.484;2023-04-07T19:31:06;9.10;95.30
43665;DHT22;29263;48.172;11.484;2023-04-07T19:33:33;9.10;95.50
43665;DHT22;29263;48.172;11.484;2023-04-07T19:35:58;9.10;96.60
43665;DHT22;29263;48.172;11.484;2023-04-07T19:38:24;9.00;97.10
43665;DHT22;29263;48.172;11.484;2023-04-07T19:40:50;9.00;97.70
43665;DHT22;29263;48.172;11.484;2023-04-07T19:43:16;9.00;97.50
43665;DHT22;29263;48.172;11.484;2023-04-07T19:45:42;8.90;97.60
43665;DHT22;29263;48.172;11.484;2023-04-07T19:48:07;8.90;98.10
43665;DHT22;29263;48.172;11.484;2023-04-07T19:50:33;8.90;96.80
43665;DHT22;29263;48.172;11.484;2023-04-07T19:53:05;8.90;98.60
43665;DHT22;29263;48.172;11.484;2023-04-07T19:55:31;8.80;99.90
43665;DHT22;29263;48.172;11.484;2023-04-07T19:57:56;8.80;99.90
43665;DHT22;29263;48.172;11.484;2023-04-07T20:00:22;8.80;99.90
43665;DHT22;29263;48.172;11.484;2023-04-07T20:02:48;8.80;99.80
43665;DHT22;29263;48.172;11.484;2023-04-07T20:05:14;8.80;99.90
43665;DHT22;29263;48.172;11.484;2023-04-07T20:07:40;8.70;99.90
43665;DHT22;29263;48.172;11.484;2023-04-07T20:10:06;8.70;99.60
43665;DHT22;29263;48.172;11.484;2023-04-07T20:12:32;8.70;99.90
43665;DHT22;29263;48.172;11.484;2023-04-07T20:14:57;8.80;99.90
43665;DHT22;29263;48.172;11.484;2023-04-07T20:17:23;8.80;99.80
43665;DHT22;29263;48.172;11.484;2023-04-07T20:19:52;8.80;99.90
43665;DHT22;29263;48.172;11.484;2023-04-07T20:22:18;8.70;99.90
43665;DHT22;29263;48.172;11.484;2023-04-07T20:24:43;8.70;99.90
43665;DHT22;29263;48.172;11.484;2023-04-07T20:27:09;8.60;99.90
43665;DHT22;29263;48.172;11.484;2023-04-07T20:29:34;8.60;99.90
43665;DHT22;29263;48.172;11.484;2023-04-07T20:32:00;8.60;99.90
43665;DHT22;29263;48.172;11.484;2023-04-07T20:34:26;8.60;99.90
43665;DHT22;29263;48.172;11.484;2023-04-07T20:36:52;8.60;99.90
43665;DHT22;29263;48.172;11.484;2023-04-07T20:39:18;8.60;99.90
43665;DHT22;29263;48.172;11.484;2023-04-07T20:41:43;8.60;99.90
43665;DHT22;29263;48.172;11.484;2023-04-07T20:44:10;8.60;99.90
43665;DHT22;29263;48.172;11.484;2023-04-07T20:46:35;8.60;99.90
43665;DHT22;29263;48.172;11.484;2023-04-07T20:49:01;8.60;99.90
43665;DHT22;29263;48.172;11.484;2023-04-07T20:51:28;8.60;99.90
43665;DHT22;29263;48.172;11.484;2023-04-07T20:53:54;8.60;99.90
43665;DHT22;29263;48.172;11.484;2023-04-07T20:56:20;8.60;99.90
43665;DHT22;29263;48.172;11.484;2023-04-07T20:58:46;8.60;99.90
43665;DHT22;29263;48.172;11.484;2023-04-07T21:01:12;8.50;99.90
43665;DHT22;29263;48.172;11.484;2023-04-07T21:03:38;8.50;99.90
43665;DHT22;29263;48.172;11.484;2023-04-07T21:06:03;8.50;99.90
43665;DHT22;29263;48.172;11.484;2023-04-07T21:08:29;8.40;99.90
43665;DHT22;29263;48.172;11.484;2023-04-07T21:10:55;8.30;99.90
43665;DHT22;29263;48.172;11.484;2023-04-07T21:13:20;8.20;99.90
43665;DHT22;29263;48.172;11.484;2023-04-07T21:15:47;8.10;99.90
43665;DHT22;29263;48.172;11.484;2023-04-07T21:18:12;8.00;99.90
43665;DHT22;29263;48.172;11.484;2023-04-07T21:20:38;7.90;99.90
43665;DHT22;29263;48.172;11.484;2023-04-07T21:23:04;7.80;99.90
43665;DHT22;29263;48.172;11.484;2023-04-07T21:25:32;7.80;99.90
43665;DHT22;29263;48.172;11.484;2023-04-07T21:27:57;7.70;99.90
43665;DHT22;29263;48.172;11.484;2023-04-07T21:30:23;7.60;99.90
43665;DHT22;29263;48.172;11.484;2023-04-07T21:32:49;7.50;99.90
43665;DHT22;29263;48.172;11.484;2023-04-07T21:35:14;7.40;99.90
43665;DHT22;29263;48.172;11.484;2023-04-07T21:37:40;7.30;99.90
43665;DHT22;29263;48.172;11.484;2023-04-07T21:40:07;7.20;99.90
43665;DHT22;29263;48.172;11.484;2023-04-07T21:42:33;7.10;99.90
43665;DHT22;29263;48.172;11.484;2023-04-07T21:44:58;6.90;99.90
43665;DHT22;29263;48.172;11.484;2023-04-07T21:47:24;6.80;99.90
43665;DHT22;29263;48.172;11.484;2023-04-07T21:49:49;6.80;99.90
43665;DHT22;29263;48.172;11.484;2023-04-07T21:52:15;6.80;99.90
43665;DHT22;29263;48.172;11.484;2023-04-07T21:54:42;6.70;99.90
43665;DHT22;29263;48.172;11.484;2023-04-07T21:57:09;6.60;99.90
43665;DHT22;29263;48.172;11.484;2023-04-07T21:59:34;6.60;99.90
43665;DHT22;29263;48.172;11.484;2023-04-07T22:02:01;6.50;99.90
43665;DHT22;29263;48.172;11.484;2023-04-07T22:04:27;6.40;99.90
43665;DHT22;29263;48.172;11.484;2023-04-07T22:06:53;6.40;99.90
43665;DHT22;29263;48.172;11.484;2023-04-07T22:09:19;6.30;99.90
43665;DHT22;29263;48.172;11.484;2023-04-07T22:11:45;6.30;99.90
43665;DHT22;29263;48.172;11.484;2023-04-07T22:14:10;6.20;99.90
43665;DHT22;29263;48.172;11.484;2023-04-07T22:16:36;6.20;99.90
43665;DHT22;29263;48.172;11.484;2023-04-07T22:19:02;6.10;99.90
43665;DHT22;29263;48.172;11.484;2023-04-07T22:21:28;5.90;99.90
43665;DHT22;29263;48.172;11.484;2023-04-07T22:23:53;5.80;99.90
43665;DHT22;29263;48.172;11.484;2023-04-07T22:26:19;5.70;99.90
43665;DHT22;29263;48.172;11.484;2023-04-07T22:28:45;5.70;99.90
43665;DHT22;29263;48.172;11.484;2023-04-07T22:31:11;5.60;99.90
43665;DHT22;29263;48.172;11.484;2023-04-07T22:33:36;5.60;99.90
43665;DHT22;29263;48.172;11.484;2023-04-07T22:36:02;5.50;99.90
43665;DHT22;29263;48.172;11.484;2023-04-07T22:38:28;5.50;99.90
43665;DHT22;29263;48.172;11.484;2023-04-07T22:40:54;5.40;99.90
43665;DHT22;29263;48.172;11.484;2023-04-07T22:43:19;5.40;99.90
43665;DHT22;29263;48.172;11.484;2023-04-07T22:45:45;5.40;99.90
43665;DHT22;29263;48.172;11.484;2023-04-07T22:48:11;5.40;99.90
43665;DHT22;29263;48.172;11.484;2023-04-07T22:50:36;5.30;99.90
43665;DHT22;29263;48.172;11.484;2023-04-07T22:53:02;5.30;99.90
43665;DHT22;29263;48.172;11.484;2023-04-07T22:55:28;5.30;99.90
43665;DHT22;29263;48.172;11.484;2023-04-07T22:57:54;5.20;99.90
43665;DHT22;29263;48.172;11.484;2023-04-07T23:00:19;5.20;99.90
43665;DHT22;29263;48.172;11.484;2023-04-07T23:02:45;5.30;99.90
43665;DHT22;29263;48.172;11.484;2023-04-07T23:05:11;5.20;99.90
43665;DHT22;29263;48.172;11.484;2023-04-07T23:07:37;5.10;99.90
43665;DHT22;29263;48.172;11.484;2023-04-07T23:10:03;5.00;99.90
43665;DHT22;29263;48.172;11.484;2023-04-07T23:12:29;5.00;99.90
43665;DHT22;29263;48.172;11.484;2023-04-07T23:14:55;4.90;99.90
43665;DHT22;29263;48.172;11.484;2023-04-07T23:17:20;4.90;99.90
43665;DHT22;29263;48.172;11.484;2023-04-07T23:19:46;4.90;99.90
43665;DHT22;29263;48.172;11.484;2023-04-07T23:22:12;4.90;99.90
43665;DHT22;29263;48.172;11.484;2023-04-07T23:24:37;4.90;99.90
43665;DHT22;29263;48.172;11.484;2023-04-07T23:27:03;4.80;99.90
43665;DHT22;29263;48.172;11.484;2023-04-07T23:29:29;4.80;99.90
43665;DHT22;29263;48.172;11.484;2023-04-07T23:31:54;4.70;99.90
43665;DHT22;29263;48.172;11.484;2023-04-07T23:34:20;4.70;99.90
43665;DHT22;29263;48.172;11.484;2023-04-07T23:36:46;4.70;99.90